Time;durP1;ratioP1;P1;durP2;ratioP2;P2;SDS_P1;SDS_P2;PMS_P1;PMS_P2;Temp;Humidity;BMP_temperature;BMP_pressure;BME280_temperature;BME280_humidity;BME280_pressure;Samples;Min_cycle;Max_cycle;Signal;HPM_P1;HPM_P2
2022/06/21 00:02:12;;;;;;;;;;;;;;;-144.99;100.00;52305.41;5088932;28;19960;-63
2022/06/21 00:04:39;;;;;;;;;;;;;;;-144.99;100.00;52309.50;4737614;28;10000373;-64
2022/06/21 00:07:06;;;;;;;;;;;;;;;-144.99;100.00;52272.81;5083123;28;20472;-65
2022/06/21 00:09:33;;;;;;;;;;;;;;;-144.99;100.00;52313.56;5087500;28;19971;-64
2022/06/21 00:12:00;;;;;;;;;;;;;;;-144.99;100.00;52321.72;5075547;28;19924;-65
2022/06/21 00:14:27;;;;;;;;;;;;;;;-144.99;100.00;52321.72;5089333;28;19927;-65
2022/06/21 00:16:54;;;;;;;;;;;;;;;-144.99;100.00;52309.50;5085699;28;20468;-64
2022/06/21 00:19:22;;;;;;;;;;;;;;;-144.99;100.00;52329.88;5084066;28;19931;-63
2022/06/21 00:21:50;;;;;;;;;;;;;;;-144.99;100.00;52346.19;5081730;28;19971;-62
2022/06/21 00:24:17;;;;;;;;;;;;;;;-144.99;100.00;52325.81;5087230;28;20288;-61
2022/06/21 00:26:44;;;;;;;;;;;;;;;-144.99;100.00;52338.03;5085843;28;19947;-61
2022/06/21 00:29:13;;;;;;;;;;;;;;;-144.99;100.00;52319.69;5089549;28;19924;-61
2022/06/21 00:31:42;;;;;;;;;;;;;;;-144.99;100.00;52309.50;5083985;28;19985;-61
2022/06/21 00:34:13;;;;;;;;;;;;;;;-144.99;100.00;52309.50;5092015;28;19924;-62
2022/06/21 00:36:40;;;;;;;;;;;;;;;-144.99;100.00;52309.50;5091540;28;19931;-62
2022/06/21 00:39:07;;;;;;;;;;;;;;;-144.99;100.00;52329.88;5091719;28;19951;-62
2022/06/21 00:41:38;;;;;;;;;;;;;;;-144.99;100.00;52285.03;5090891;28;19928;-62
2022/06/21 00:44:06;;;;;;;;;;;;;;;-144.99;100.00;52309.50;5091358;28;19992;-63
2022/06/21 00:46:37;;;;;;;;;;;;;;;-144.99;100.00;52297.25;5091544;28;20407;-63
2022/06/21 00:49:04;;;;;;;;;;;;;;;-144.99;100.00;52301.34;5091460;28;20341;-63
2022/06/21 00:51:34;;;;;;;;;;;;;;;-144.99;100.00;52319.69;5091760;28;19924;-63
2022/06/21 00:54:03;;;;;;;;;;;;;;;-144.99;100.00;52311.53;5091117;28;19939;-63
2022/06/21 00:56:32;;;;;;;;;;;;;;;-144.99;100.00;52333.94;5083989;28;19924;-62
2022/06/21 00:59:15;;;;;;;;;;;;;;;-144.99;100.00;52313.56;5087254;28;19970;-63
2022/06/21 01:01:43;;;;;;;;;;;;;;;-144.99;100.00;52325.81;5087198;28;19932;-62
2022/06/21 01:04:12;;;;;;;;;;;;;;;-144.99;100.00;52325.81;5088032;28;19923;-60
2022/06/21 01:06:41;;;;;;;;;;;;;;;-144.99;100.00;52350.25;5084595;28;19924;-63
2022/06/21 01:09:12;;;;;;;;;;;;;;;-144.99;100.00;52309.50;5091733;28;20337;-62
2022/06/21 01:11:41;;;;;;;;;;;;;;;-144.99;100.00;52317.66;5088057;28;19928;-62
2022/06/21 01:14:09;;;;;;;;;;;;;;;-144.99;100.00;52315.59;5087508;28;19956;-65
2022/06/21 01:16:36;;;;;;;;;;;;;;;-144.99;100.00;52348.22;5080996;28;19964;-64
2022/06/21 01:19:08;;;;;;;;;;;;;;;-144.99;100.00;52309.50;5085752;28;19925;-64
2022/06/21 01:21:36;;;;;;;;;;;;;;;-144.99;100.00;52313.56;5088879;28;20304;-64
2022/06/21 01:24:09;;;;;;;;;;;;;;;-144.99;100.00;52303.38;5090432;28;20151;-62
2022/06/21 01:26:42;;;;;;;;;;;;;;;-144.99;100.00;52309.50;5087199;28;19963;-62
2022/06/21 01:29:11;;;;;;;;;;;;;;;-144.99;100.00;52325.81;5080760;28;19985;-62
2022/06/21 01:31:38;;;;;;;;;;;;;;;-144.99;100.00;52333.94;5086064;28;20022;-62
2022/06/21 01:34:07;;;;;;;;;;;;;;;-144.99;100.00;52313.56;5086460;28;19940;-62
2022/06/21 01:36:35;;;;;;;;;;;;;;;-144.99;100.00;52301.34;5092167;28;19928;-61
2022/06/21 01:39:03;;;;;;;;;;;;;;;-144.99;100.00;52297.25;5089345;28;20335;-60
2022/06/21 01:41:33;;;;;;;;;;;;;;;-144.99;100.00;52348.22;5087583;28;20201;-60
2022/06/21 01:44:04;;;;;;;;;;;;;;;-144.99;100.00;52293.19;5090614;28;19924;-60
2022/06/21 01:46:32;;;;;;;;;;;;;;;-144.99;100.00;52325.81;5083753;28;19924;-60
2022/06/21 01:49:00;;;;;;;;;;;;;;;-144.99;100.00;52309.50;5086746;28;20540;-60
2022/06/21 01:51:29;;;;;;;;;;;;;;;-144.99;100.00;52315.59;5083814;28;19930;-65
2022/06/21 01:53:59;;;;;;;;;;;;;;;-144.99;100.00;52301.34;5089980;28;20593;-64
2022/06/21 01:56:26;;;;;;;;;;;;;;;-144.99;100.00;52342.09;5086113;28;19982;-63
2022/06/21 01:58:55;;;;;;;;;;;;;;;-144.99;100.00;52319.69;5090980;28;19971;-64
2022/06/21 02:01:27;;;;;;;;;;;;;;;-144.99;100.00;52301.34;5084598;28;19925;-60
2022/06/21 02:03:56;;;;;;;;;;;;;;;-144.99;100.00;52301.34;5087247;28;19932;-63
2022/06/21 02:06:25;;;;;;;;;;;;;;;-144.99;100.00;52350.25;5087980;28;19932;-63
2022/06/21 02:08:55;;;;;;;;;;;;;;;-144.99;100.00;52307.47;5083745;28;20445;-63
2022/06/21 02:11:23;;;;;;;;;;;;;;;-144.99;100.00;52338.03;5087038;28;19991;-61
2022/06/21 02:14:28;;;;;;;;;;;;;;;-144.99;100.00;52321.72;5083278;28;19924;-60
2022/06/21 02:16:40;;;;;;;;;;;;;;;-144.99;100.00;52329.88;5086766;28;19944;-60
2022/06/21 02:19:13;;;;;;;;;;;;;;;-144.99;100.00;52297.25;5086312;28;19924;-60
2022/06/21 02:21:42;;;;;;;;;;;;;;;-144.99;100.00;52331.91;5093560;28;20102;-61
2022/06/21 02:24:09;;;;;;;;;;;;;;;-144.99;100.00;52311.53;5086813;28;19974;-61
2022/06/21 02:26:36;;;;;;;;;;;;;;;-144.99;100.00;52289.13;5088491;28;20009;-61
2022/06/21 02:29:02;;;;;;;;;;;;;;;-144.99;100.00;52285.03;5087241;28;19977;-61
2022/06/21 02:31:30;;;;;;;;;;;;;;;-144.99;100.00;52329.88;5084002;28;20013;-60
2022/06/21 02:34:00;;;;;;;;;;;;;;;-144.99;100.00;52360.44;5082108;28;20365;-61
2022/06/21 02:36:30;;;;;;;;;;;;;;;-144.99;100.00;52293.19;5086543;28;19993;-61
2022/06/21 02:38:58;;;;;;;;;;;;;;;-144.99;100.00;52293.19;5079200;28;19977;-61
2022/06/21 02:41:26;;;;;;;;;;;;;;;-144.99;100.00;52305.41;5085650;28;20442;-62
2022/06/21 02:43:54;;;;;;;;;;;;;;;-144.99;100.00;52325.81;5082620;28;19928;-65
2022/06/21 02:46:24;;;;;;;;;;;;;;;-144.99;100.00;52362.50;5084252;28;19936;-65
2022/06/21 02:48:53;;;;;;;;;;;;;;;-144.99;100.00;52317.66;5089663;28;19928;-68
2022/06/21 02:51:23;;;;;;;;;;;;;;;-144.99;100.00;52313.56;5083459;28;19932;-68
2022/06/21 02:53:52;;;;;;;;;;;;;;;-144.99;100.00;52329.88;5087662;28;19924;-67
2022/06/21 02:56:24;;;;;;;;;;;;;;;-144.99;100.00;52336.00;5086791;28;20038;-61
2022/06/21 02:58:52;;;;;;;;;;;;;;;-144.99;100.00;52336.00;5090025;28;20008;-60
2022/06/21 03:01:20;;;;;;;;;;;;;;;-144.99;100.00;52280.97;5088555;28;20392;-64
2022/06/21 03:03:47;;;;;;;;;;;;;;;-144.99;100.00;52309.50;5090683;28;20392;-65
2022/06/21 03:06:15;;;;;;;;;;;;;;;-144.99;100.00;52336.00;5086453;28;19996;-69
2022/06/21 03:08:48;;;;;;;;;;;;;;;-144.99;100.00;52336.00;5094231;28;19932;-68
2022/06/21 03:11:15;;;;;;;;;;;;;;;-144.99;100.00;52348.22;5087170;28;19928;-68
2022/06/21 03:13:42;;;;;;;;;;;;;;;-144.99;100.00;52321.72;5081189;28;19969;-68
2022/06/21 03:16:11;;;;;;;;;;;;;;;-144.99;100.00;52297.25;5085410;28;19956;-68
2022/06/21 03:18:40;;;;;;;;;;;;;;;-144.99;100.00;52301.34;5086808;28;19938;-69
2022/06/21 03:21:06;;;;;;;;;;;;;;;-144.99;100.00;52317.66;5088845;28;20239;-68
2022/06/21 03:23:34;;;;;;;;;;;;;;;-144.99;100.00;52321.72;5086552;28;20411;-69
2022/06/21 03:26:03;;;;;;;;;;;;;;;-144.99;100.00;52309.50;5082026;28;19925;-65
2022/06/21 03:28:31;;;;;;;;;;;;;;;-144.99;100.00;52303.38;5085994;28;19935;-68
2022/06/21 03:31:04;;;;;;;;;;;;;;;-144.99;100.00;52285.03;5079495;28;19974;-68
2022/06/21 03:33:32;;;;;;;;;;;;;;;-144.99;100.00;52305.41;5083179;28;19924;-68
2022/06/21 03:36:00;;;;;;;;;;;;;;;-144.99;100.00;52293.19;5088574;28;20397;-66
2022/06/21 03:38:26;;;;;;;;;;;;;;;-144.99;100.00;52309.50;5081042;28;19986;-67
2022/06/21 03:43:43;;;;;;;;;;;;;;;-144.99;100.00;52309.50;5088800;28;19935;-67
2022/06/21 03:46:12;;;;;;;;;;;;;;;-144.99;100.00;52329.88;5082398;28;19924;-64
2022/06/21 03:48:42;;;;;;;;;;;;;;;-144.99;100.00;52321.72;5079898;28;19924;-64
2022/06/21 03:51:12;;;;;;;;;;;;;;;-144.99;100.00;52313.56;5080724;28;19924;-65
2022/06/21 03:53:41;;;;;;;;;;;;;;;-144.99;100.00;52313.56;5088321;28;20018;-65
2022/06/21 03:56:11;;;;;;;;;;;;;;;-144.99;100.00;52291.16;5087296;28;20027;-67
2022/06/21 03:58:44;;;;;;;;;;;;;;;-144.99;100.00;52333.94;5088936;28;20051;-66
2022/06/21 04:01:14;;;;;;;;;;;;;;;-144.99;100.00;52321.72;5090999;28;20366;-67
2022/06/21 04:03:45;;;;;;;;;;;;;;;-144.99;100.00;52285.03;5092102;28;19959;-67
2022/06/21 04:06:15;;;;;;;;;;;;;;;-144.99;100.00;52321.72;5089303;28;19968;-71
2022/06/21 04:08:46;;;;;;;;;;;;;;;-144.99;100.00;52329.88;5090295;28;19959;-69
2022/06/21 04:11:15;;;;;;;;;;;;;;;-144.99;100.00;52309.50;5088160;28;19954;-69
2022/06/21 04:13:51;;;;;;;;;;;;;;;-144.99;100.00;52342.09;5091764;28;20357;-69
2022/06/21 04:16:20;;;;;;;;;;;;;;;-144.99;100.00;52305.41;5091729;28;20019;-66
2022/06/21 04:21:21;;;;;;;;;;;;;;;-144.99;100.00;52297.25;5083124;28;19956;-63
2022/06/21 04:23:51;;;;;;;;;;;;;;;-144.99;100.00;52287.06;5085909;28;19978;-63
2022/06/21 04:26:21;;;;;;;;;;;;;;;-144.99;100.00;52305.41;5087376;28;19963;-63
2022/06/21 04:28:52;;;;;;;;;;;;;;;-144.99;100.00;52264.66;5080930;28;19928;-63
2022/06/21 04:31:21;;;;;;;;;;;;;;;-144.99;100.00;52315.59;5082776;28;19928;-63
2022/06/21 04:33:51;;;;;;;;;;;;;;;-144.99;100.00;52289.13;5083751;28;19928;-64
2022/06/21 04:36:19;;;;;;;;;;;;;;;-144.99;100.00;52325.81;5080387;28;19970;-64
2022/06/21 04:38:48;;;;;;;;;;;;;;;-144.99;100.00;52262.63;5086052;28;19927;-64
2022/06/21 04:41:18;;;;;;;;;;;;;;;-144.99;100.00;52289.13;5084376;28;19935;-64
2022/06/21 04:43:47;;;;;;;;;;;;;;;-144.99;100.00;52313.56;5085805;28;20011;-64
2022/06/21 04:46:19;;;;;;;;;;;;;;;-144.99;100.00;52268.72;5077481;28;19928;-64
2022/06/21 04:48:49;;;;;;;;;;;;;;;-144.99;100.00;52289.13;5077790;28;20022;-64
2022/06/21 04:51:18;;;;;;;;;;;;;;;-144.99;100.00;52293.19;5082083;28;19971;-64
2022/06/21 04:53:48;;;;;;;;;;;;;;;-144.99;100.00;52280.97;5084210;28;20404;-64
2022/06/21 04:56:19;;;;;;;;;;;;;;;-144.99;100.00;52305.41;5080153;28;20001;-64
2022/06/21 04:58:49;;;;;;;;;;;;;;;-144.99;100.00;52301.34;5083743;28;20381;-64
2022/06/21 05:01:32;;;;;;;;;;;;;;;-144.99;100.00;52309.50;5083358;28;19928;-69
2022/06/21 05:04:01;;;;;;;;;;;;;;;-144.99;100.00;52283.00;5082578;28;20384;-69
2022/06/21 05:06:28;;;;;;;;;;;;;;;-144.99;100.00;52252.44;5090107;28;19979;-69
2022/06/21 05:08:54;;;;;;;;;;;;;;;-144.99;100.00;52289.13;5085768;28;20399;-69
2022/06/21 05:11:22;;;;;;;;;;;;;;;-144.99;100.00;52287.06;5078170;28;19932;-69
2022/06/21 05:13:50;;;;;;;;;;;;;;;-144.99;100.00;52262.63;5079114;28;19928;-69
2022/06/21 05:16:21;;;;;;;;;;;;;;;-144.99;100.00;52280.97;4377784;28;10000801;-69
2022/06/21 05:18:51;;;;;;;;;;;;;;;-144.99;100.00;52268.72;5088527;28;20005;-69
2022/06/21 05:21:18;;;;;;;;;;;;;;;-144.99;100.00;52256.50;5084453;28;19971;-68
2022/06/21 05:23:45;;;;;;;;;;;;;;;-144.99;100.00;52252.44;5082596;28;19974;-68
2022/06/21 05:26:15;;;;;;;;;;;;;;;-144.99;100.00;52291.16;5081869;28;20153;-69
2022/06/21 05:28:46;;;;;;;;;;;;;;;-144.99;100.00;52260.56;5084170;28;20287;-67
2022/06/21 05:31:16;;;;;;;;;;;;;;;-144.99;100.00;52254.47;5079167;28;19935;-68
2022/06/21 05:33:47;;;;;;;;;;;;;;;-144.99;100.00;52278.91;5078770;28;19929;-69
2022/06/21 05:36:15;;;;;;;;;;;;;;;-144.99;100.00;52215.75;5080445;28;20556;-64
2022/06/21 05:38:50;;;;;;;;;;;;;;;-144.99;98.47;52264.66;5080379;28;19927;-63
2022/06/21 05:41:30;;;;;;;;;;;;;;;-144.99;98.25;52244.28;5082169;28;19924;-68
2022/06/21 05:43:59;;;;;;;;;;;;;;;-144.99;97.64;52264.66;5075636;28;20339;-67
2022/06/21 05:46:28;;;;;;;;;;;;;;;-144.99;97.27;52266.69;5077136;28;19978;-66
2022/06/21 05:48:56;;;;;;;;;;;;;;;-144.99;96.18;52244.28;5081261;28;20010;-66
2022/06/21 05:51:25;;;;;;;;;;;;;;;-144.99;95.01;52211.66;5073925;28;20179;-66
2022/06/21 05:53:54;;;;;;;;;;;;;;;-144.99;94.07;52232.03;5072619;28;19967;-67
2022/06/21 05:56:23;;;;;;;;;;;;;;;-144.99;92.88;52238.16;5079573;28;19959;-66
2022/06/21 05:58:52;;;;;;;;;;;;;;;-144.99;90.36;52191.28;5072784;28;19928;-66
2022/06/21 06:01:22;;;;;;;;;;;;;;;-144.99;89.88;52236.13;5083391;28;19928;-66
2022/06/21 06:03:51;;;;;;;;;;;;;;;-144.99;87.56;52230.00;5075736;28;19929;-66
2022/06/21 06:06:21;;;;;;;;;;;;;;;-144.99;85.17;52197.41;5080539;28;20317;-66
2022/06/21 06:08:49;;;;;;;;;;;;;;;-144.99;82.13;52256.50;5080650;28;19924;-66
2022/06/21 06:11:19;;;;;;;;;;;;;;;-144.99;82.34;52215.75;5077441;28;20019;-68
2022/06/21 06:13:46;;;;;;;;;;;;;;;-144.99;81.89;52215.75;5078759;28;20072;-67
2022/06/21 06:16:26;;;;;;;;;;;;;;;-144.99;81.44;52248.34;5079728;28;20024;-65
2022/06/21 06:18:56;;;;;;;;;;;;;;;-144.99;80.83;52250.38;5082980;28;19928;-67
2022/06/21 06:21:26;;;;;;;;;;;;;;;-144.99;80.13;52227.97;5075055;28;19928;-59
2022/06/21 06:23:56;;;;;;;;;;;;;;;-144.99;79.37;52219.81;5079341;28;19975;-63
2022/06/21 06:26:25;;;;;;;;;;;;;;;-144.99;78.47;52248.34;5074807;28;19985;-64
2022/06/21 06:28:56;;;;;;;;;;;;;;;-144.99;76.71;52211.66;5071924;28;19978;-72
2022/06/21 06:31:24;;;;;;;;;;;;;;;-144.99;76.36;52230.00;5082374;28;19931;-71
2022/06/21 06:33:53;;;;;;;;;;;;;;;-144.99;76.09;52276.88;5073738;28;19932;-71
2022/06/21 06:36:22;;;;;;;;;;;;;;;-144.99;75.74;52246.31;5078357;28;20180;-72
2022/06/21 06:38:50;;;;;;;;;;;;;;;-144.99;75.32;52223.88;5081874;28;19928;-70
2022/06/21 06:41:21;;;;;;;;;;;;;;;-144.99;75.56;52289.13;5079595;28;19925;-71
2022/06/21 06:43:49;;;;;;;;;;;;;;;-144.99;75.07;52254.47;5072966;28;19959;-70
2022/06/21 06:46:19;;;;;;;;;;;;;;;-144.99;75.08;52242.22;5077981;28;19925;-71
2022/06/21 06:48:46;;;;;;;;;;;;;;;-144.99;74.04;52236.13;5076630;28;20381;-70
2022/06/21 06:51:28;;;;;;;;;;;;;;;-144.99;73.84;52215.75;5084388;28;20005;-70
2022/06/21 06:53:57;;;;;;;;;;;;;;;-144.99;72.59;52227.97;5067565;28;20339;-70
2022/06/21 06:56:28;;;;;;;;;;;;;;;-144.99;72.95;52240.19;5077939;28;20372;-71
2022/06/21 06:58:57;;;;;;;;;;;;;;;-144.99;72.49;52236.13;5079345;28;20005;-71
2022/06/21 07:01:26;;;;;;;;;;;;;;;-144.99;70.58;52219.81;5074436;28;19930;-71
2022/06/21 07:03:57;;;;;;;;;;;;;;;-144.99;71.29;52252.44;5079711;28;19928;-70
2022/06/21 07:06:35;;;;;;;;;;;;;;;-144.99;72.03;52219.81;5079184;28;19971;-70
2022/06/21 07:09:08;;;;;;;;;;;;;;;-144.99;71.07;52230.00;5077439;28;20021;-72
2022/06/21 07:11:47;;;;;;;;;;;;;;;-144.99;70.83;52244.28;4725351;28;10000015;-71
2022/06/21 07:14:16;;;;;;;;;;;;;;;-144.99;70.73;52207.59;5078254;28;19939;-71
2022/06/21 07:16:43;;;;;;;;;;;;;;;-144.99;70.51;52215.75;5081779;28;19924;-70
2022/06/21 07:19:10;;;;;;;;;;;;;;;-144.99;69.95;52203.50;5087716;28;19928;-70
2022/06/21 07:21:38;;;;;;;;;;;;;;;-144.99;69.38;52152.56;5089603;28;19977;-71
2022/06/21 07:24:09;;;;;;;;;;;;;;;-144.99;69.09;52191.28;5082955;28;20419;-71
2022/06/21 07:26:41;;;;;;;;;;;;;;;-144.99;67.72;52199.44;5095071;28;19924;-71
2022/06/21 07:29:12;;;;;;;;;;;;;;;-144.99;66.51;52187.19;5098616;28;19925;-71
2022/06/21 07:31:42;;;;;;;;;;;;;;;-144.99;65.08;52142.38;5106754;28;20458;-71
2022/06/21 07:34:11;;;;;;;;;;;;;;;-144.99;64.19;52195.34;5103768;28;19932;-71
2022/06/21 07:36:41;;;;;;;;;;;;;;;-144.99;62.53;52236.13;5102611;28;19961;-71
2022/06/21 07:39:12;;;;;;;;;;;;;;;-144.99;61.22;52191.28;5102642;28;19939;-72
2022/06/21 07:41:43;;;;;;;;;;;;;;;-144.99;62.17;52215.75;5106327;28;19940;-71
2022/06/21 07:44:12;;;;;;;;;;;;;;;-144.99;62.23;52199.44;5084398;28;19936;-70
2022/06/21 07:46:42;;;;;;;;;;;;;;;-144.99;61.67;52219.81;5105640;28;19912;-72
2022/06/21 07:49:13;;;;;;;;;;;;;;;-144.99;60.09;52179.06;5106136;28;19935;-71
2022/06/21 07:51:43;;;;;;;;;;;;;;;-144.99;60.61;52197.41;5105824;28;19932;-71
2022/06/21 07:54:14;;;;;;;;;;;;;;;-144.99;60.77;52205.53;5102767;28;19924;-70
2022/06/21 07:56:42;;;;;;;;;;;;;;;-144.99;59.31;52195.34;5095532;28;19963;-70
2022/06/21 07:59:15;;;;;;;;;;;;;;;-144.99;59.09;52170.91;5101408;28;19924;-72
2022/06/21 08:07:18;;;;;;;;;;;;;;;-144.99;57.40;52179.06;5093377;28;20311;-71
2022/06/21 08:09:51;;;;;;;;;;;;;;;-144.99;57.71;52130.13;5087248;28;19931;-71
2022/06/21 08:12:18;;;;;;;;;;;;;;;-144.99;54.07;52174.97;5093142;28;20004;-71
2022/06/21 08:14:45;;;;;;;;;;;;;;;-144.99;55.67;52174.97;5088912;28;19950;-71
2022/06/21 08:17:17;;;;;;;;;;;;;;;-144.99;55.64;52170.91;5089893;28;19932;-72
2022/06/21 08:19:47;;;;;;;;;;;;;;;-144.99;56.49;52150.53;5082936;28;19967;-70
2022/06/21 08:22:17;;;;;;;;;;;;;;;-144.99;56.94;52170.91;5085197;28;19984;-70
2022/06/21 08:24:52;;;;;;;;;;;;;;;-144.99;56.32;52154.59;5084360;28;19959;-70
2022/06/21 08:27:24;;;;;;;;;;;;;;;-144.99;55.62;52170.91;5090122;28;19971;-71
2022/06/21 08:29:54;;;;;;;;;;;;;;;-144.99;55.79;52154.59;5086455;28;19928;-71
2022/06/21 08:32:27;;;;;;;;;;;;;;;-144.99;54.99;52207.59;5089768;28;19959;-71
2022/06/21 08:34:56;;;;;;;;;;;;;;;-144.99;54.36;52187.19;5086901;28;19931;-71
2022/06/21 08:37:27;;;;;;;;;;;;;;;-144.99;54.30;52166.81;5084676;28;20353;-72
2022/06/21 08:39:56;;;;;;;;;;;;;;;-144.99;52.82;52158.66;5089162;28;20442;-71
2022/06/21 08:42:38;;;;;;;;;;;;;;;-144.99;53.51;52109.75;5090151;28;20026;-72
2022/06/21 08:48:16;;;;;;;;;;;;;;;-144.99;53.08;52219.81;5080822;28;19927;-71
2022/06/21 08:50:49;;;;;;;;;;;;;;;-144.99;52.64;52142.38;5089166;28;19981;-73
2022/06/21 08:53:34;;;;;;;;;;;;;;;-144.99;53.17;52156.63;5087710;28;19928;-72
2022/06/21 08:56:07;;;;;;;;;;;;;;;-144.99;52.32;52154.59;5085826;28;19924;-71
2022/06/21 08:58:39;;;;;;;;;;;;;;;-144.99;51.05;52146.44;5079354;28;19935;-72
2022/06/21 09:01:10;;;;;;;;;;;;;;;-144.99;50.67;52113.84;5077955;28;19932;-71
2022/06/21 09:03:45;;;;;;;;;;;;;;;-144.99;49.27;52160.72;5090846;28;19967;-71
2022/06/21 09:06:17;;;;;;;;;;;;;;;-144.99;49.99;52168.84;5085357;28;20308;-71
2022/06/21 09:08:57;;;;;;;;;;;;;;;-144.99;51.21;52191.28;5080974;28;20009;-72
2022/06/21 09:11:28;;;;;;;;;;;;;;;-144.99;51.50;52158.66;5088283;28;20015;-72
2022/06/21 09:14:07;;;;;;;;;;;;;;;-144.99;51.90;52187.19;5090334;28;19934;-72
2022/06/21 09:16:40;;;;;;;;;;;;;;;-144.99;51.60;52189.25;5088389;28;19924;-71
2022/06/21 09:19:18;;;;;;;;;;;;;;;-144.99;49.91;52199.44;5081580;28;19986;-71
2022/06/21 09:21:53;;;;;;;;;;;;;;;-144.99;48.71;52168.84;5084475;28;19963;-70
2022/06/21 09:24:27;;;;;;;;;;;;;;;-144.99;50.62;52199.44;5081800;28;19932;-70
2022/06/21 09:26:58;;;;;;;;;;;;;;;-144.99;50.72;52183.13;5086156;28;19928;-71
2022/06/21 09:29:28;;;;;;;;;;;;;;;-144.99;50.18;52174.97;5089809;28;19928;-72
2022/06/21 09:32:08;;;;;;;;;;;;;;;-144.99;50.05;52183.13;5081892;28;20201;-72
2022/06/21 09:34:40;;;;;;;;;;;;;;;-144.99;49.67;52140.31;5083069;28;19928;-71
2022/06/21 09:37:15;;;;;;;;;;;;;;;-144.99;48.56;52170.91;5080488;28;19928;-72
2022/06/21 09:39:43;;;;;;;;;;;;;;;-144.99;48.28;52138.28;5080971;28;19935;-70
2022/06/21 09:42:16;;;;;;;;;;;;;;;-144.99;49.13;52146.44;5081115;28;20294;-71
2022/06/21 09:44:48;;;;;;;;;;;;;;;-144.99;49.18;52181.09;5069766;28;19932;-73
2022/06/21 09:47:21;;;;;;;;;;;;;;;-144.99;48.80;52146.44;5078246;28;19928;-73
2022/06/21 09:49:53;;;;;;;;;;;;;;;-144.99;48.67;52199.44;5085738;28;20416;-71
2022/06/21 09:52:30;;;;;;;;;;;;;;;-144.99;47.61;52158.66;5074886;28;19967;-69
2022/06/21 09:55:02;;;;;;;;;;;;;;;-144.99;48.39;52154.59;5078530;28;19928;-69
2022/06/21 09:57:34;;;;;;;;;;;;;;;-144.99;48.59;52152.56;5075913;28;19936;-68
2022/06/21 10:00:05;;;;;;;;;;;;;;;-144.99;48.57;52168.84;5075216;28;20347;-69
2022/06/21 10:02:38;;;;;;;;;;;;;;;-144.99;48.06;52146.44;5080468;28;20147;-68
2022/06/21 10:05:12;;;;;;;;;;;;;;;-144.99;47.22;52081.22;5082466;28;20013;-68
2022/06/21 10:07:52;;;;;;;;;;;;;;;-144.99;46.59;52154.59;5079522;28;19936;-71
2022/06/21 10:10:27;;;;;;;;;;;;;;;-144.99;46.37;52130.13;5076526;28;20567;-71
2022/06/21 10:12:57;;;;;;;;;;;;;;;-144.99;46.72;52146.44;5087746;28;20031;-71
2022/06/21 10:15:34;;;;;;;;;;;;;;;-144.99;46.29;52113.84;5074643;28;20391;-71
2022/06/21 10:18:15;;;;;;;;;;;;;;;-144.99;46.18;52146.44;5074960;28;19932;-71
2022/06/21 10:20:54;;;;;;;;;;;;;;;-144.99;45.66;52081.22;5079245;28;20011;-71
2022/06/21 10:23:32;;;;;;;;;;;;;;;-144.99;45.46;52091.41;5077910;28;20631;-71
2022/06/21 10:26:06;;;;;;;;;;;;;;;-144.99;45.05;52044.53;5078360;28;19976;-71
2022/06/21 10:28:42;;;;;;;;;;;;;;;-144.99;43.80;52069.00;5072580;28;19928;-69
2022/06/21 10:31:29;;;;;;;;;;;;;;;-144.99;43.97;52101.59;5072963;28;19999;-69
2022/06/21 10:34:15;;;;;;;;;;;;;;;-144.99;43.35;52044.53;5046916;28;19982;-70
2022/06/21 10:36:54;;;;;;;;;;;;;;;-144.99;42.73;52109.75;5085902;28;20329;-71
2022/06/21 10:39:28;;;;;;;;;;;;;;;-144.99;42.31;52105.69;5075331;28;20013;-70
2022/06/21 10:45:05;;;;;;;;;;;;;;;-144.99;42.78;52105.69;5078257;28;20404;-70
2022/06/21 10:47:39;;;;;;;;;;;;;;;-144.99;43.03;52154.59;5078061;28;20150;-71
2022/06/21 10:50:12;;;;;;;;;;;;;;;-144.99;43.21;52109.75;5079930;28;20039;-70
2022/06/21 10:52:57;;;;;;;;;;;;;;;-144.99;43.21;52115.88;5079789;28;19939;-71
2022/06/21 10:55:37;;;;;;;;;;;;;;;-144.99;42.97;52052.69;5079699;28;20024;-71
2022/06/21 10:58:10;;;;;;;;;;;;;;;-144.99;42.38;52093.44;5081862;28;19997;-69
2022/06/21 11:03:51;;;;;;;;;;;;;;;-144.99;42.51;52081.22;5072708;28;19951;-69
2022/06/21 11:06:25;;;;;;;;;;;;;;;-144.99;42.69;52121.97;5079504;28;20041;-69
2022/06/21 11:08:59;;;;;;;;;;;;;;;-144.99;42.49;52166.81;5081224;28;19998;-70
2022/06/21 11:11:29;;;;;;;;;;;;;;;-144.99;42.06;52150.53;5081761;28;19925;-69
2022/06/21 11:14:03;;;;;;;;;;;;;;;-144.99;42.79;52117.91;5086301;28;20014;-72
2022/06/21 11:16:34;;;;;;;;;;;;;;;-144.99;42.79;52162.75;5081687;28;19948;-72
2022/06/21 11:19:06;;;;;;;;;;;;;;;-144.99;42.36;52101.59;5078309;28;19929;-72
2022/06/21 11:21:47;;;;;;;;;;;;;;;-144.99;42.07;52166.81;5075645;28;20015;-70
2022/06/21 11:24:21;;;;;;;;;;;;;;;-144.99;42.17;52077.16;5081409;28;19950;-69
2022/06/21 11:26:54;;;;;;;;;;;;;;;-144.99;40.87;52150.53;5074022;28;19959;-69
2022/06/21 11:29:25;;;;;;;;;;;;;;;-144.99;42.62;52179.06;5080009;28;20444;-69
2022/06/21 11:31:56;;;;;;;;;;;;;;;-144.99;43.17;52126.06;5083239;28;20442;-69
2022/06/21 11:34:26;;;;;;;;;;;;;;;-144.99;42.86;52093.44;5087928;28;19966;-69
2022/06/21 11:36:58;;;;;;;;;;;;;;;-144.99;42.79;52056.78;5085113;28;19928;-67
2022/06/21 11:39:32;;;;;;;;;;;;;;;-144.99;42.37;52060.84;5077688;28;19928;-67
2022/06/21 11:42:09;;;;;;;;;;;;;;;-144.99;41.35;52069.00;5078646;28;19970;-66
2022/06/21 11:44:46;;;;;;;;;;;;;;;-144.99;40.85;52077.16;5078827;28;20004;-67
2022/06/21 11:47:14;;;;;;;;;;;;;;;-144.99;40.23;52097.53;5079497;28;20026;-67
2022/06/21 11:49:48;;;;;;;;;;;;;;;-144.99;40.51;52060.84;5079620;28;19973;-67
2022/06/21 11:52:35;;;;;;;;;;;;;;;-144.99;40.80;52007.84;5077055;28;20039;-67
2022/06/21 11:55:17;;;;;;;;;;;;;;;-144.99;40.38;52024.16;5076555;28;20087;-68
2022/06/21 11:57:46;;;;;;;;;;;;;;;-144.99;40.10;52040.47;5077510;28;19929;-68
2022/06/21 12:00:15;;;;;;;;;;;;;;;-144.99;40.26;52011.94;5078502;28;19974;-68
2022/06/21 12:02:46;;;;;;;;;;;;;;;-144.99;39.81;52032.31;5078727;28;19935;-68
2022/06/21 12:05:20;;;;;;;;;;;;;;;-144.99;39.59;52007.84;5077871;28;19981;-68
2022/06/21 12:07:50;;;;;;;;;;;;;;;-144.99;39.21;52016.00;5079245;28;19924;-67
2022/06/21 12:10:20;;;;;;;;;;;;;;;-144.99;39.18;51987.47;5083608;28;19924;-67
2022/06/21 12:12:55;;;;;;;;;;;;;;;-144.99;38.84;52073.06;5083733;28;20406;-67
2022/06/21 12:15:30;;;;;;;;;;;;;;;-144.99;39.02;52069.00;5081261;28;20027;-67
2022/06/21 12:17:59;;;;;;;;;;;;;;;-144.99;39.09;52007.84;5083418;28;19928;-68
2022/06/21 12:20:30;;;;;;;;;;;;;;;-144.99;39.48;51995.63;5078642;28;20019;-68
2022/06/21 12:22:59;;;;;;;;;;;;;;;-144.99;37.98;51963.03;5079360;28;19978;-69
2022/06/21 12:25:27;;;;;;;;;;;;;;;-144.99;37.46;52052.69;5083186;28;19924;-67
2022/06/21 12:27:58;;;;;;;;;;;;;;;-144.99;38.05;52005.81;5079262;28;19930;-67
2022/06/21 12:30:26;;;;;;;;;;;;;;;-144.99;38.64;52089.38;5082502;28;20326;-67
2022/06/21 12:33:06;;;;;;;;;;;;;;;-144.99;38.39;52040.47;5084925;28;19933;-67
2022/06/21 12:35:40;;;;;;;;;;;;;;;-144.99;38.31;52046.56;5076667;28;20317;-68
2022/06/21 12:38:10;;;;;;;;;;;;;;;-144.99;38.51;52056.78;5082227;28;19947;-67
2022/06/21 12:40:39;;;;;;;;;;;;;;;-144.99;38.36;52056.78;5075398;28;19924;-67
2022/06/21 12:43:24;;;;;;;;;;;;;;;-144.99;38.01;52011.94;5083356;28;20046;-67
2022/06/21 12:45:59;;;;;;;;;;;;;;;-144.99;37.98;51991.56;5086280;28;20378;-67
2022/06/21 12:48:33;;;;;;;;;;;;;;;-144.99;38.09;52109.75;5080023;28;19985;-67
2022/06/21 12:51:10;;;;;;;;;;;;;;;-144.99;38.27;52077.16;5080424;28;20027;-69
2022/06/21 12:53:54;;;;;;;;;;;;;;;-144.99;38.80;52089.38;5081317;28;20278;-68
2022/06/21 12:56:30;;;;;;;;;;;;;;;-144.99;39.13;52073.06;5077119;28;19929;-62
2022/06/21 12:59:09;;;;;;;;;;;;;;;-144.99;39.02;52058.81;5075288;28;20415;-67
2022/06/21 13:01:40;;;;;;;;;;;;;;;-144.99;38.81;52036.38;5077693;28;19925;-70
2022/06/21 13:04:20;;;;;;;;;;;;;;;-144.99;38.86;52113.84;5079025;28;19953;-72